sensor_id;sensor_type;location;lat;lon;timestamp;pressure;altitude;pressure_sealevel;temperature;humidity
51313;BME280;37397;53.226;10.400;2023-09-12T00:00:37;100787.59;;;22.62;65.62
51313;BME280;37397;53.226;10.400;2023-09-12T00:03:03;100791.06;;;22.60;65.32
51313;BME280;37397;53.226;10.400;2023-09-12T00:05:30;100789.53;;;22.59;65.04
51313;BME280;37397;53.226;10.400;2023-09-12T00:07:57;100803.50;;;22.61;65.14
51313;BME280;37397;53.226;10.400;2023-09-12T00:10:23;100807.53;;;22.57;65.11
51313;BME280;37397;53.226;10.400;2023-09-12T00:12:50;100817.03;;;22.58;65.43
51313;BME280;37397;53.226;10.400;2023-09-12T00:15:16;100816.28;;;22.57;65.19
51313;BME280;37397;53.226;10.400;2023-09-12T00:17:43;100816.59;;;22.54;65.35
51313;BME280;37397;53.226;10.400;2023-09-12T00:20:10;100821.09;;;22.55;65.17
51313;BME280;37397;53.226;10.400;2023-09-12T00:22:37;100822.41;;;22.54;64.79
51313;BME280;37397;53.226;10.400;2023-09-12T00:25:04;100812.72;;;22.51;65.24
51313;BME280;37397;53.226;10.400;2023-09-12T00:27:30;100809.59;;;22.49;65.19
51313;BME280;37397;53.226;10.400;2023-09-12T00:29:58;100821.00;;;22.47;65.12
51313;BME280;37397;53.226;10.400;2023-09-12T00:32:24;100830.28;;;22.46;65.22
51313;BME280;37397;53.226;10.400;2023-09-12T00:34:51;100826.63;;;22.45;65.13
51313;BME280;37397;53.226;10.400;2023-09-12T00:37:17;100820.81;;;22.45;65.11
51313;BME280;37397;53.226;10.400;2023-09-12T00:39:44;100810.09;;;22.40;65.26
51313;BME280;37397;53.226;10.400;2023-09-12T00:42:10;100805.97;;;22.35;65.27
51313;BME280;37397;53.226;10.400;2023-09-12T00:44:37;100809.53;;;22.42;65.30
51313;BME280;37397;53.226;10.400;2023-09-12T00:47:04;100807.19;;;22.40;65.21
51313;BME280;37397;53.226;10.400;2023-09-12T00:49:32;100805.97;;;22.35;65.38
51313;BME280;37397;53.226;10.400;2023-09-12T00:52:00;100806.75;;;22.36;65.42
51313;BME280;37397;53.226;10.400;2023-09-12T00:54:28;100807.09;;;22.32;65.32
51313;BME280;37397;53.226;10.400;2023-09-12T00:56:55;100798.19;;;22.30;65.36
51313;BME280;37397;53.226;10.400;2023-09-12T00:59:21;100812.16;;;22.32;65.25
51313;BME280;37397;53.226;10.400;2023-09-12T01:01:48;100814.38;;;22.26;65.52
51313;BME280;37397;53.226;10.400;2023-09-12T01:04:16;100811.91;;;22.30;65.22
51313;BME280;37397;53.226;10.400;2023-09-12T01:07:00;100817.50;;;22.28;65.25
51313;BME280;37397;53.226;10.400;2023-09-12T01:09:26;100818.63;;;22.25;65.61
51313;BME280;37397;53.226;10.400;2023-09-12T01:11:53;100806.56;;;22.20;65.83
51313;BME280;37397;53.226;10.400;2023-09-12T01:14:20;100815.50;;;22.22;65.95
51313;BME280;37397;53.226;10.400;2023-09-12T01:16:47;100830.25;;;22.25;65.85
51313;BME280;37397;53.226;10.400;2023-09-12T01:19:14;100825.56;;;22.21;65.96
51313;BME280;37397;53.226;10.400;2023-09-12T01:22:03;100830.59;;;22.21;65.68
51313;BME280;37397;53.226;10.400;2023-09-12T01:25:07;100817.75;;;22.16;66.24
51313;BME280;37397;53.226;10.400;2023-09-12T01:27:37;100818.53;;;22.17;66.24
51313;BME280;37397;53.226;10.400;2023-09-12T01:30:05;100809.97;;;22.11;66.16
51313;BME280;37397;53.226;10.400;2023-09-12T01:32:34;100808.06;;;22.14;66.10
51313;BME280;37397;53.226;10.400;2023-09-12T01:35:01;100788.03;;;22.10;66.04
51313;BME280;37397;53.226;10.400;2023-09-12T01:37:31;100785.38;;;22.12;66.21
51313;BME280;37397;53.226;10.400;2023-09-12T01:39:58;100787.47;;;22.12;66.04
51313;BME280;37397;53.226;10.400;2023-09-12T01:42:30;100779.31;;;22.10;66.00
51313;BME280;37397;53.226;10.400;2023-09-12T01:45:01;100779.31;;;22.10;66.12
51313;BME280;37397;53.226;10.400;2023-09-12T01:47:28;100761.47;;;22.06;66.03
51313;BME280;37397;53.226;10.400;2023-09-12T01:49:57;100764.59;;;22.08;65.92
51313;BME280;37397;53.226;10.400;2023-09-12T01:52:26;100768.41;;;22.03;66.18
51313;BME280;37397;53.226;10.400;2023-09-12T01:54:54;100761.47;;;22.06;66.38
51313;BME280;37397;53.226;10.400;2023-09-12T01:57:21;100749.41;;;22.02;66.31
51313;BME280;37397;53.226;10.400;2023-09-12T01:59:49;100762.81;;;22.05;66.25
51313;BME280;37397;53.226;10.400;2023-09-12T02:02:16;100759.69;;;22.03;66.24
51313;BME280;37397;53.226;10.400;2023-09-12T02:04:58;100753.69;;;22.01;66.07
51313;BME280;37397;53.226;10.400;2023-09-12T02:07:33;100754.66;;;22.03;66.16
51313;BME280;37397;53.226;10.400;2023-09-12T02:10:02;100762.59;;;22.03;66.25
51313;BME280;37397;53.226;10.400;2023-09-12T02:12:33;100759.50;;;22.01;66.15
51313;BME280;37397;53.226;10.400;2023-09-12T02:15:00;100763.94;;;22.02;66.22
51313;BME280;37397;53.226;10.400;2023-09-12T02:17:27;100757.16;;;21.99;66.08
51313;BME280;37397;53.226;10.400;2023-09-12T02:19:53;100760.81;;;22.00;66.23
51313;BME280;37397;53.226;10.400;2023-09-12T02:22:20;100755.78;;;22.00;66.26
51313;BME280;37397;53.226;10.400;2023-09-12T02:24:46;100763.72;;;22.00;66.30
51313;BME280;37397;53.226;10.400;2023-09-12T02:27:14;100767.19;;;21.98;66.20
51313;BME280;37397;53.226;10.400;2023-09-12T02:29:41;100779.59;;;21.99;66.27
51313;BME280;37397;53.226;10.400;2023-09-12T02:32:09;100791.22;;;21.99;65.95
51313;BME280;37397;53.226;10.400;2023-09-12T02:34:35;100793.47;;;21.93;66.39
51313;BME280;37397;53.226;10.400;2023-09-12T02:37:02;100796.81;;;21.97;66.14
51313;BME280;37397;53.226;10.400;2023-09-12T02:39:29;100809.78;;;21.96;66.29
51313;BME280;37397;53.226;10.400;2023-09-12T02:41:55;100812.47;;;21.94;65.88
51313;BME280;37397;53.226;10.400;2023-09-12T02:44:22;100814.03;;;21.95;66.22
51313;BME280;37397;53.226;10.400;2023-09-12T02:46:48;100829.69;;;21.92;66.38
51313;BME280;37397;53.226;10.400;2023-09-12T02:49:15;100828.69;;;21.89;66.51
51313;BME280;37397;53.226;10.400;2023-09-12T02:51:42;100853.16;;;21.94;66.40
51313;BME280;37397;53.226;10.400;2023-09-12T02:54:08;100864.34;;;21.90;66.65
51313;BME280;37397;53.226;10.400;2023-09-12T02:56:35;100860.09;;;21.91;66.59
51313;BME280;37397;53.226;10.400;2023-09-12T02:59:01;100855.63;;;21.90;66.75
51313;BME280;37397;53.226;10.400;2023-09-12T03:01:28;100845.69;;;21.85;66.67
51313;BME280;37397;53.226;10.400;2023-09-12T03:03:55;100858.84;;;21.86;66.55
51313;BME280;37397;53.226;10.400;2023-09-12T03:06:22;100869.34;;;21.89;66.70
51313;BME280;37397;53.226;10.400;2023-09-12T03:08:49;100859.66;;;21.87;66.59
51313;BME280;37397;53.226;10.400;2023-09-12T03:11:16;100844.88;;;21.84;66.96
51313;BME280;37397;53.226;10.400;2023-09-12T03:13:43;100844.88;;;21.84;66.73
51313;BME280;37397;53.226;10.400;2023-09-12T03:16:13;100860.22;;;21.85;66.59
51313;BME280;37397;53.226;10.400;2023-09-12T03:18:40;100849.16;;;21.83;66.82
51313;BME280;37397;53.226;10.400;2023-09-12T03:21:07;100862.88;;;21.83;66.97
51313;BME280;37397;53.226;10.400;2023-09-12T03:23:34;100865.00;;;21.82;66.87
51313;BME280;37397;53.226;10.400;2023-09-12T03:26:05;100876.63;;;21.82;66.65
51313;BME280;37397;53.226;10.400;2023-09-12T03:28:33;100871.94;;;21.79;66.90
51313;BME280;37397;53.226;10.400;2023-09-12T03:31:13;100869.59;;;21.78;66.62
51313;BME280;37397;53.226;10.400;2023-09-12T03:33:42;100864.59;;;21.78;66.86
51313;BME280;37397;53.226;10.400;2023-09-12T03:36:09;100854.09;;;21.75;67.04
51313;BME280;37397;53.226;10.400;2023-09-12T03:38:36;100851.75;;;21.74;66.87
51313;BME280;37397;53.226;10.400;2023-09-12T03:41:03;100857.00;;;21.75;66.72
51313;BME280;37397;53.226;10.400;2023-09-12T03:43:30;100851.19;;;21.75;66.91
51313;BME280;37397;53.226;10.400;2023-09-12T03:45:57;100839.31;;;21.73;66.89
51313;BME280;37397;53.226;10.400;2023-09-12T03:48:23;100838.00;;;21.74;66.77
51313;BME280;37397;53.226;10.400;2023-09-12T03:50:50;100836.22;;;21.71;66.83
51313;BME280;37397;53.226;10.400;2023-09-12T03:53:17;100826.94;;;21.73;66.72
51313;BME280;37397;53.226;10.400;2023-09-12T03:55:44;100831.97;;;21.72;66.73
51313;BME280;37397;53.226;10.400;2023-09-12T03:58:10;100821.69;;;21.71;66.75
51313;BME280;37397;53.226;10.400;2023-09-12T04:00:37;100815.66;;;21.69;66.80
51313;BME280;37397;53.226;10.400;2023-09-12T04:03:04;100816.78;;;21.66;66.86
51313;BME280;37397;53.226;10.400;2023-09-12T04:05:30;100828.41;;;21.66;66.65
51313;BME280;37397;53.226;10.400;2023-09-12T04:07:57;100831.53;;;21.68;66.75
51313;BME280;37397;53.226;10.400;2023-09-12T04:10:24;100813.31;;;21.67;66.98
51313;BME280;37397;53.226;10.400;2023-09-12T04:12:50;100797.00;;;21.64;66.93
51313;BME280;37397;53.226;10.400;2023-09-12T04:15:17;100806.84;;;21.61;67.05
51313;BME280;37397;53.226;10.400;2023-09-12T04:17:43;100814.44;;;21.64;66.95
51313;BME280;37397;53.226;10.400;2023-09-12T04:20:10;100807.41;;;21.60;66.91
51313;BME280;37397;53.226;10.400;2023-09-12T04:22:44;100805.84;;;21.59;66.91
51313;BME280;37397;53.226;10.400;2023-09-12T04:25:11;100816.88;;;21.60;67.06
51313;BME280;37397;53.226;10.400;2023-09-12T04:27:38;100818.56;;;21.56;67.14
51313;BME280;37397;53.226;10.400;2023-09-12T04:30:05;100826.41;;;21.61;67.10
51313;BME280;37397;53.226;10.400;2023-09-12T04:32:32;100821.72;;;21.58;66.85
51313;BME280;37397;53.226;10.400;2023-09-12T04:34:59;100834.88;;;21.59;67.05
51313;BME280;37397;53.226;10.400;2023-09-12T04:37:25;100842.03;;;21.58;67.20
51313;BME280;37397;53.226;10.400;2023-09-12T04:39:52;100855.75;;;21.57;67.10
51313;BME280;37397;53.226;10.400;2023-09-12T04:42:20;100869.06;;;21.53;67.34
51313;BME280;37397;53.226;10.400;2023-09-12T04:44:47;100872.97;;;21.55;67.29
51313;BME280;37397;53.226;10.400;2023-09-12T04:47:13;100869.28;;;21.55;67.33
51313;BME280;37397;53.226;10.400;2023-09-12T04:49:42;100882.25;;;21.54;67.23
51313;BME280;37397;53.226;10.400;2023-09-12T04:52:09;100873.53;;;21.54;67.23
51313;BME280;37397;53.226;10.400;2023-09-12T04:54:36;100870.41;;;21.52;67.15
51313;BME280;37397;53.226;10.400;2023-09-12T04:57:03;100881.25;;;21.51;67.25
51313;BME280;37397;53.226;10.400;2023-09-12T04:59:29;100885.28;;;21.48;67.36
51313;BME280;37397;53.226;10.400;2023-09-12T05:01:56;100884.94;;;21.52;67.33
51313;BME280;37397;53.226;10.400;2023-09-12T05:04:24;100887.34;;;21.47;67.31
51313;BME280;37397;53.226;10.400;2023-09-12T05:06:50;100892.06;;;21.51;67.55
51313;BME280;37397;53.226;10.400;2023-09-12T05:09:17;100897.09;;;21.50;67.70
51313;BME280;37397;53.226;10.400;2023-09-12T05:11:44;100895.53;;;21.49;67.73
51313;BME280;37397;53.226;10.400;2023-09-12T05:14:10;100901.84;;;21.47;67.52
51313;BME280;37397;53.226;10.400;2023-09-12T05:16:37;100904.75;;;21.47;67.55
51313;BME280;37397;53.226;10.400;2023-09-12T05:19:04;100890.53;;;21.49;67.56
51313;BME280;37397;53.226;10.400;2023-09-12T05:21:31;100877.09;;;21.46;67.64
51313;BME280;37397;53.226;10.400;2023-09-12T05:23:58;100862.56;;;21.46;67.48
51313;BME280;37397;53.226;10.400;2023-09-12T05:26:25;100829.28;;;21.47;67.57
51313;BME280;37397;53.226;10.400;2023-09-12T05:28:51;100794.97;;;21.46;67.63
51313;BME280;37397;53.226;10.400;2023-09-12T05:31:19;100763.84;;;21.46;67.87
51313;BME280;37397;53.226;10.400;2023-09-12T05:33:46;100772.31;;;21.44;68.04
51313;BME280;37397;53.226;10.400;2023-09-12T05:36:12;100798.69;;;21.46;67.92
51313;BME280;37397;53.226;10.400;2023-09-12T05:38:39;100805.63;;;21.43;67.83
51313;BME280;37397;53.226;10.400;2023-09-12T05:41:06;100810.06;;;21.44;67.65
51313;BME280;37397;53.226;10.400;2023-09-12T05:43:33;100791.31;;;21.45;67.71
51313;BME280;37397;53.226;10.400;2023-09-12T05:46:00;100769.97;;;21.43;67.72
51313;BME280;37397;53.226;10.400;2023-09-12T05:48:26;100775.78;;;21.43;67.57
51313;BME280;37397;53.226;10.400;2023-09-12T05:50:53;100783.72;;;21.42;67.78
51313;BME280;37397;53.226;10.400;2023-09-12T05:53:19;100794.00;;;21.43;68.03
51313;BME280;37397;53.226;10.400;2023-09-12T05:55:46;100793.53;;;21.39;67.72
51313;BME280;37397;53.226;10.400;2023-09-12T05:58:13;100804.03;;;21.42;67.79
51313;BME280;37397;53.226;10.400;2023-09-12T06:00:39;100809.63;;;21.40;67.62
51313;BME280;37397;53.226;10.400;2023-09-12T06:03:07;100810.19;;;21.39;67.73
51313;BME280;37397;53.226;10.400;2023-09-12T06:05:34;100821.81;;;21.39;67.72
51313;BME280;37397;53.226;10.400;2023-09-12T06:08:01;100823.38;;;21.40;67.61
51313;BME280;37397;53.226;10.400;2023-09-12T06:10:28;100834.19;;;21.39;67.64
51313;BME280;37397;53.226;10.400;2023-09-12T06:12:54;100838.44;;;21.38;67.67
51313;BME280;37397;53.226;10.400;2023-09-12T06:15:21;100843.78;;;21.34;67.74
51313;BME280;37397;53.226;10.400;2023-09-12T06:17:48;100851.19;;;21.35;68.16
51313;BME280;37397;53.226;10.400;2023-09-12T06:20:14;100854.09;;;21.35;68.00
51313;BME280;37397;53.226;10.400;2023-09-12T06:22:41;100860.78;;;21.30;67.83
51313;BME280;37397;53.226;10.400;2023-09-12T06:25:09;100867.56;;;21.33;68.04
51313;BME280;37397;53.226;10.400;2023-09-12T06:27:36;100862.00;;;21.35;67.88
51313;BME280;37397;53.226;10.400;2023-09-12T06:30:03;100861.22;;;21.34;68.12
51313;BME280;37397;53.226;10.400;2023-09-12T06:32:29;100848.03;;;21.33;67.92
51313;BME280;37397;53.226;10.400;2023-09-12T06:34:56;100863.91;;;21.32;68.18
51313;BME280;37397;53.226;10.400;2023-09-12T06:37:23;100871.25;;;21.33;68.08
51313;BME280;37397;53.226;10.400;2023-09-12T06:39:50;100868.13;;;21.31;68.25
51313;BME280;37397;53.226;10.400;2023-09-12T06:42:17;100877.41;;;21.29;68.36
51313;BME280;37397;53.226;10.400;2023-09-12T06:44:44;100881.31;;;21.32;68.50
51313;BME280;37397;53.226;10.400;2023-09-12T06:47:11;100894.03;;;21.29;68.40
51313;BME280;37397;53.226;10.400;2023-09-12T06:49:38;100911.88;;;21.33;68.43
51313;BME280;37397;53.226;10.400;2023-09-12T06:52:05;100928.53;;;21.33;68.55
51313;BME280;37397;53.226;10.400;2023-09-12T06:54:34;100945.19;;;21.32;68.53
51313;BME280;37397;53.226;10.400;2023-09-12T06:57:01;100949.63;;;21.33;68.60
51313;BME280;37397;53.226;10.400;2023-09-12T06:59:28;100952.53;;;21.33;68.73
51313;BME280;37397;53.226;10.400;2023-09-12T07:01:54;100954.09;;;21.34;68.70
51313;BME280;37397;53.226;10.400;2023-09-12T07:04:21;100945.94;;;21.33;68.71
51313;BME280;37397;53.226;10.400;2023-09-12T07:06:48;100948.31;;;21.34;68.81
51313;BME280;37397;53.226;10.400;2023-09-12T07:09:14;100948.53;;;21.36;68.84
51313;BME280;37397;53.226;10.400;2023-09-12T07:11:41;100932.47;;;21.35;68.73
51313;BME280;37397;53.226;10.400;2023-09-12T07:14:09;100921.97;;;21.32;68.57
51313;BME280;37397;53.226;10.400;2023-09-12T07:16:36;100929.56;;;21.35;68.71
51313;BME280;37397;53.226;10.400;2023-09-12T07:19:03;100924.84;;;21.32;68.55
51313;BME280;37397;53.226;10.400;2023-09-12T07:21:31;100919.28;;;21.34;68.52
51313;BME280;37397;53.226;10.400;2023-09-12T07:23:58;100923.50;;;21.33;68.52
51313;BME280;37397;53.226;10.400;2023-09-12T07:26:25;100934.81;;;21.37;68.53
51313;BME280;37397;53.226;10.400;2023-09-12T07:28:54;100944.06;;;21.35;68.49
51313;BME280;37397;53.226;10.400;2023-09-12T07:31:20;100919.28;;;21.34;68.54
51313;BME280;37397;53.226;10.400;2023-09-12T07:33:47;100902.41;;;21.33;68.63
51313;BME280;37397;53.226;10.400;2023-09-12T07:36:14;100906.34;;;21.35;68.44
51313;BME280;37397;53.226;10.400;2023-09-12T07:38:40;100892.38;;;21.34;68.59
51313;BME280;37397;53.226;10.400;2023-09-12T07:41:08;100884.44;;;21.34;68.14
51313;BME280;37397;53.226;10.400;2023-09-12T07:43:35;100891.81;;;21.35;68.47
51313;BME280;37397;53.226;10.400;2023-09-12T07:46:01;100877.06;;;21.33;68.45
51313;BME280;37397;53.226;10.400;2023-09-12T07:48:28;100874.41;;;21.35;68.48
51313;BME280;37397;53.226;10.400;2023-09-12T07:50:54;100891.81;;;21.35;68.53
51313;BME280;37397;53.226;10.400;2023-09-12T07:53:21;100886.00;;;21.35;68.81
51313;BME280;37397;53.226;10.400;2023-09-12T07:55:48;100899.16;;;21.36;68.79
51313;BME280;37397;53.226;10.400;2023-09-12T07:58:16;100896.81;;;21.35;68.77
51313;BME280;37397;53.226;10.400;2023-09-12T08:00:46;100911.59;;;21.37;68.86
51313;BME280;37397;53.226;10.400;2023-09-12T08:03:13;100901.84;;;21.34;68.64
51313;BME280;37397;53.226;10.400;2023-09-12T08:05:42;100909.22;;;21.35;69.02
51313;BME280;37397;53.226;10.400;2023-09-12T08:08:09;100903.19;;;21.33;69.00
51313;BME280;37397;53.226;10.400;2023-09-12T08:10:36;100908.69;;;21.37;69.11
51313;BME280;37397;53.226;10.400;2023-09-12T08:13:03;100905.78;;;21.37;69.11
51313;BME280;37397;53.226;10.400;2023-09-12T08:15:29;100915.25;;;21.37;69.22
51313;BME280;37397;53.226;10.400;2023-09-12T08:17:56;100914.25;;;21.35;69.73
51313;BME280;37397;53.226;10.400;2023-09-12T08:20:23;100904.97;;;21.36;68.97
51313;BME280;37397;53.226;10.400;2023-09-12T08:22:50;100899.41;;;21.38;69.32
51313;BME280;37397;53.226;10.400;2023-09-12T08:25:16;100906.56;;;21.37;69.07
51313;BME280;37397;53.226;10.400;2023-09-12T08:27:43;100903.88;;;21.39;69.19
51313;BME280;37397;53.226;10.400;2023-09-12T08:30:11;100904.66;;;21.40;69.29
51313;BME280;37397;53.226;10.400;2023-09-12T08:32:40;100918.94;;;21.38;69.30
51313;BME280;37397;53.226;10.400;2023-09-12T08:35:11;100940.84;;;21.39;69.25
51313;BME280;37397;53.226;10.400;2023-09-12T08:37:42;100960.59;;;21.40;69.04
51313;BME280;37397;53.226;10.400;2023-09-12T08:40:10;100973.53;;;21.39;69.22
51313;BME280;37397;53.226;10.400;2023-09-12T08:42:39;100969.31;;;21.40;69.17
51313;BME280;37397;53.226;10.400;2023-09-12T08:45:15;100960.59;;;21.40;69.44
51313;BME280;37397;53.226;10.400;2023-09-12T08:47:43;100940.28;;;21.40;69.57
51313;BME280;37397;53.226;10.400;2023-09-12T08:50:14;100941.84;;;21.41;69.59
51313;BME280;37397;53.226;10.400;2023-09-12T08:52:42;100942.16;;;21.38;69.63
51313;BME280;37397;53.226;10.400;2023-09-12T08:55:29;100949.22;;;21.42;69.54
51313;BME280;37397;53.226;10.400;2023-09-12T08:57:57;100959.50;;;21.43;69.74
51313;BME280;37397;53.226;10.400;2023-09-12T09:00:23;100952.31;;;21.44;69.79
51313;BME280;37397;53.226;10.400;2023-09-12T09:02:51;100948.88;;;21.46;70.07
51313;BME280;37397;53.226;10.400;2023-09-12T09:05:20;100949.66;;;21.46;70.06
51313;BME280;37397;53.226;10.400;2023-09-12T09:07:48;100955.16;;;21.50;70.22
51313;BME280;37397;53.226;10.400;2023-09-12T09:10:17;100943.56;;;21.50;70.47
51313;BME280;37397;53.226;10.400;2023-09-12T09:12:52;100938.53;;;21.51;70.54
51313;BME280;37397;53.226;10.400;2023-09-12T09:15:25;100932.41;;;21.54;70.68
51313;BME280;37397;53.226;10.400;2023-09-12T09:17:55;100928.16;;;21.55;71.13
51313;BME280;37397;53.226;10.400;2023-09-12T09:20:30;100939.75;;;21.55;71.12
51313;BME280;37397;53.226;10.400;2023-09-12T09:22:58;100945.22;;;21.59;71.27
51313;BME280;37397;53.226;10.400;2023-09-12T09:25:25;100947.03;;;21.62;71.79
51313;BME280;37397;53.226;10.400;2023-09-12T09:27:52;100950.16;;;21.64;71.84
51313;BME280;37397;53.226;10.400;2023-09-12T09:30:47;100945.69;;;21.63;71.80
51313;BME280;37397;53.226;10.400;2023-09-12T09:33:14;100963.00;;;21.68;71.96
51313;BME280;37397;53.226;10.400;2023-09-12T09:35:43;100971.16;;;21.70;72.03
51313;BME280;37397;53.226;10.400;2023-09-12T09:38:11;100971.41;;;21.72;71.93
51313;BME280;37397;53.226;10.400;2023-09-12T09:40:44;100970.28;;;21.75;71.89
51313;BME280;37397;53.226;10.400;2023-09-12T09:43:11;100980.00;;;21.78;71.91
51313;BME280;37397;53.226;10.400;2023-09-12T09:45:44;100972.28;;;21.80;72.19
51313;BME280;37397;53.226;10.400;2023-09-12T09:48:22;100968.03;;;21.81;72.41
51313;BME280;37397;53.226;10.400;2023-09-12T09:50:49;100963.78;;;21.82;72.43
51313;BME280;37397;53.226;10.400;2023-09-12T09:53:15;100964.25;;;21.87;72.10
51313;BME280;37397;53.226;10.400;2023-09-12T09:55:42;100976.31;;;21.91;72.11
51313;BME280;37397;53.226;10.400;2023-09-12T09:58:14;100972.06;;;21.92;72.13
51313;BME280;37397;53.226;10.400;2023-09-12T10:00:43;100991.03;;;21.93;72.16
51313;BME280;37397;53.226;10.400;2023-09-12T10:03:10;100979.88;;;21.97;72.16
51313;BME280;37397;53.226;10.400;2023-09-12T10:05:39;100970.38;;;21.96;71.86
51313;BME280;37397;53.226;10.400;2023-09-12T10:08:09;100980.91;;;21.99;71.83
51313;BME280;37397;53.226;10.400;2023-09-12T10:10:38;100979.19;;;22.04;71.68
51313;BME280;37397;53.226;10.400;2023-09-12T10:13:05;100977.88;;;22.05;71.66
51313;BME280;37397;53.226;10.400;2023-09-12T10:15:33;100973.84;;;22.08;71.80
51313;BME280;37397;53.226;10.400;2023-09-12T10:18:04;100971.16;;;22.10;71.78
51313;BME280;37397;53.226;10.400;2023-09-12T10:20:58;100964.00;;;22.11;72.55
51313;BME280;37397;53.226;10.400;2023-09-12T10:23:56;100966.13;;;22.11;72.26
51313;BME280;37397;53.226;10.400;2023-09-12T10:26:24;100943.66;;;22.11;71.98
51313;BME280;37397;53.226;10.400;2023-09-12T10:28:51;100947.00;;;22.15;72.06
51313;BME280;37397;53.226;10.400;2023-09-12T10:31:19;100950.91;;;22.18;71.64
51313;BME280;37397;53.226;10.400;2023-09-12T10:33:46;100949.34;;;22.17;71.43
51313;BME280;37397;53.226;10.400;2023-09-12T10:36:13;100960.63;;;22.20;71.43
51313;BME280;37397;53.226;10.400;2023-09-12T10:38:45;100956.16;;;22.19;70.89
51313;BME280;37397;53.226;10.400;2023-09-12T10:41:14;100981.19;;;22.22;70.88
51313;BME280;37397;53.226;10.400;2023-09-12T10:43:42;100989.94;;;22.22;71.01
51313;BME280;37397;53.226;10.400;2023-09-12T10:46:10;100992.63;;;22.20;70.73
51313;BME280;37397;53.226;10.400;2023-09-12T10:48:37;101008.38;;;22.25;70.68
51313;BME280;37397;53.226;10.400;2023-09-12T10:51:07;101005.78;;;22.21;70.70
51313;BME280;37397;53.226;10.400;2023-09-12T10:53:35;101012.06;;;22.26;70.68
51313;BME280;37397;53.226;10.400;2023-09-12T11:01:37;101016.31;;;22.25;70.80
51313;BME280;37397;53.226;10.400;2023-09-12T11:06:46;101003.34;;;22.26;70.61
51313;BME280;37397;53.226;10.400;2023-09-12T11:11:42;101003.13;;;22.24;70.62
51313;BME280;37397;53.226;10.400;2023-09-12T11:14:09;101010.50;;;22.25;70.52
51313;BME280;37397;53.226;10.400;2023-09-12T11:16:36;101005.38;;;22.17;70.41
51313;BME280;37397;53.226;10.400;2023-09-12T11:19:21;101008.69;;;22.21;70.59
51313;BME280;37397;53.226;10.400;2023-09-12T11:21:53;100979.41;;;22.19;70.54
51313;BME280;37397;53.226;10.400;2023-09-12T11:24:21;100972.03;;;22.18;70.45
51313;BME280;37397;53.226;10.400;2023-09-12T11:26:59;100975.94;;;22.21;70.20
51313;BME280;37397;53.226;10.400;2023-09-12T11:29:36;100964.31;;;22.21;70.33
51313;BME280;37397;53.226;10.400;2023-09-12T11:32:03;100979.41;;;22.19;70.28
51313;BME280;37397;53.226;10.400;2023-09-12T11:34:40;100979.19;;;22.17;70.08
51313;BME280;37397;53.226;10.400;2023-09-12T11:37:08;100973.50;;;22.12;70.41
51313;BME280;37397;53.226;10.400;2023-09-12T11:39:36;100986.56;;;22.18;70.40
51313;BME280;37397;53.226;10.400;2023-09-12T11:42:04;100994.09;;;22.14;70.21
51313;BME280;37397;53.226;10.400;2023-09-12T11:44:31;100984.00;;;22.15;70.14
51313;BME280;37397;53.226;10.400;2023-09-12T11:47:01;100988.69;;;22.18;70.08
51313;BME280;37397;53.226;10.400;2023-09-12T11:49:37;100997.97;;;22.16;69.93
51313;BME280;37397;53.226;10.400;2023-09-12T11:52:07;101002.34;;;22.10;70.18
51313;BME280;37397;53.226;10.400;2023-09-12T11:54:34;100999.09;;;22.13;70.24
51313;BME280;37397;53.226;10.400;2023-09-12T11:57:02;100997.53;;;22.12;70.18
51313;BME280;37397;53.226;10.400;2023-09-12T11:59:29;100988.59;;;22.10;70.02
51313;BME280;37397;53.226;10.400;2023-09-12T12:01:56;100982.22;;;22.12;69.98
51313;BME280;37397;53.226;10.400;2023-09-12T12:04:24;100987.47;;;22.13;70.08
51313;BME280;37397;53.226;10.400;2023-09-12T12:06:54;100976.63;;;22.14;70.07
51313;BME280;37397;53.226;10.400;2023-09-12T12:09:21;100970.03;;;22.13;70.22
51313;BME280;37397;53.226;10.400;2023-09-12T12:11:48;100960.31;;;22.11;70.09
51313;BME280;37397;53.226;10.400;2023-09-12T12:14:16;100940.97;;;22.13;70.02
51313;BME280;37397;53.226;10.400;2023-09-12T12:16:44;100940.19;;;22.13;70.06
51313;BME280;37397;53.226;10.400;2023-09-12T12:19:11;100945.22;;;22.12;70.12
51313;BME280;37397;53.226;10.400;2023-09-12T12:21:42;100934.94;;;22.11;70.17
51313;BME280;37397;53.226;10.400;2023-09-12T12:24:14;100934.38;;;22.13;69.88
51313;BME280;37397;53.226;10.400;2023-09-12T12:26:44;100926.22;;;22.11;69.98
51313;BME280;37397;53.226;10.400;2023-09-12T12:29:11;100926.00;;;22.09;69.95
51313;BME280;37397;53.226;10.400;2023-09-12T12:31:39;100914.13;;;22.07;70.37
51313;BME280;37397;53.226;10.400;2023-09-12T12:34:06;100920.63;;;22.13;70.19
51313;BME280;37397;53.226;10.400;2023-09-12T12:36:56;100911.69;;;22.11;70.22
51313;BME280;37397;53.226;10.400;2023-09-12T12:39:24;100919.63;;;22.11;70.24
51313;BME280;37397;53.226;10.400;2023-09-12T12:41:52;100919.94;;;22.07;70.13
51313;BME280;37397;53.226;10.400;2023-09-12T12:44:21;100919.63;;;22.11;70.12
51313;BME280;37397;53.226;10.400;2023-09-12T12:46:49;100922.75;;;22.13;70.73
51313;BME280;37397;53.226;10.400;2023-09-12T12:49:16;100918.84;;;22.10;70.66
51313;BME280;37397;53.226;10.400;2023-09-12T12:51:42;100923.31;;;22.11;70.70
51313;BME280;37397;53.226;10.400;2023-09-12T12:54:09;100923.53;;;22.13;71.10
51313;BME280;37397;53.226;10.400;2023-09-12T12:56:36;100930.69;;;22.12;71.12